Aredale, Iowa
Current Conditions -  °F | °C
As of 12:35 PM on Saturday 20 Dec 2014 (Local Time) from KCCY Reporting Station
Haze Haze  
Wind Chill: 24°   Ceiling: 600
Heat Index: 32°   Visibility: 2mi
Dew Point: 32°   Wind: 9mph
Humidity: 100%   Direction: 160°SSE
Pressure: 30.15"   Gusts: NA
Location:  42.83°N, 93.01°W
Report Text: KCCY 201835Z AUTO 16008KT 2SM BR BKN006 OVC012 M00/M00 A3015 RMK AO2
Loading
Personal Weather Stations






























Interactive Weather Map New forecast layout! Learn more

10-Day Weather Forecast

Advertisements
Track Severe Weather on mobile